createdAt,value
2023-08-06T00:00:45.481Z,93873.00
2023-08-06T00:01:45.492Z,93875.00
2023-08-06T00:02:45.579Z,93871.00
2023-08-06T00:03:45.555Z,93871.00
2023-08-06T00:04:45.628Z,93864.00
2023-08-06T00:05:45.655Z,93871.00
2023-08-06T00:06:45.713Z,93871.00
2023-08-06T00:07:45.739Z,93873.00
2023-08-06T00:08:45.808Z,93871.00
2023-08-06T00:09:45.829Z,93875.00
2023-08-06T00:10:45.912Z,93873.00
2023-08-06T00:11:45.919Z,93873.00
2023-08-06T00:12:45.949Z,93875.00
2023-08-06T00:13:46.008Z,93875.00
2023-08-06T00:14:46.075Z,93877.00
2023-08-06T00:15:46.107Z,93875.00
2023-08-06T00:16:46.184Z,93877.00
2023-08-06T00:17:46.251Z,93881.00
2023-08-06T00:18:46.241Z,93879.00
2023-08-06T00:19:46.342Z,93879.00
2023-08-06T00:20:46.338Z,93883.00
2023-08-06T00:21:46.388Z,93879.00
2023-08-06T00:22:46.430Z,93877.00
2023-08-06T00:23:46.512Z,93877.00
2023-08-06T00:24:46.524Z,93877.00
2023-08-06T00:25:46.560Z,93873.00
2023-08-06T00:26:46.609Z,93873.00
2023-08-06T00:27:46.645Z,93871.00
2023-08-06T00:28:46.753Z,93871.00
2023-08-06T00:29:46.759Z,93864.00
2023-08-06T00:30:46.794Z,93862.00
2023-08-06T00:31:46.845Z,93860.00
2023-08-06T00:32:46.909Z,93858.00
2023-08-06T00:33:46.913Z,93856.00
2023-08-06T00:34:46.959Z,93856.00
2023-08-06T00:35:47.016Z,93854.00
2023-08-06T00:36:47.054Z,93856.00
2023-08-06T00:37:47.117Z,93858.00
2023-08-06T00:38:47.157Z,93856.00
2023-08-06T00:39:47.248Z,93858.00
2023-08-06T00:40:47.268Z,93854.00
2023-08-06T00:41:47.333Z,93858.00
2023-08-06T00:42:47.334Z,93858.00
2023-08-06T00:43:47.383Z,93858.00
2023-08-06T00:44:47.471Z,93856.00
2023-08-06T00:45:47.499Z,93854.00
2023-08-06T00:46:47.582Z,93858.00
2023-08-06T00:47:47.659Z,93856.00
2023-08-06T00:48:47.668Z,93860.00
2023-08-06T00:49:47.687Z,93862.00
2023-08-06T00:50:47.773Z,93862.00
2023-08-06T00:51:47.807Z,93864.00
2023-08-06T00:52:47.863Z,93860.00
2023-08-06T00:53:47.897Z,93860.00
2023-08-06T00:54:47.963Z,93860.00
2023-08-06T00:55:48.003Z,93858.00
2023-08-06T00:56:48.065Z,93858.00
2023-08-06T00:57:48.108Z,93856.00
2023-08-06T00:58:48.142Z,93856.00
2023-08-06T00:59:48.235Z,93858.00
2023-08-06T01:00:48.285Z,93854.00
2023-08-06T01:01:48.317Z,93852.00
2023-08-06T01:02:48.407Z,93852.00
2023-08-06T01:03:48.393Z,93850.00
2023-08-06T01:04:48.426Z,93850.00
2023-08-06T01:05:48.464Z,93850.00
2023-08-06T01:06:48.527Z,93850.00
2023-08-06T01:07:48.569Z,93852.00
2023-08-06T01:08:48.600Z,93850.00
2023-08-06T01:09:48.637Z,93850.00
2023-08-06T01:10:48.681Z,93850.00
2023-08-06T01:11:48.719Z,93852.00
2023-08-06T01:12:48.768Z,93850.00
2023-08-06T01:13:48.816Z,93848.00
2023-08-06T01:14:48.863Z,93852.00
2023-08-06T01:15:48.918Z,93848.00
2023-08-06T01:16:48.954Z,93854.00
2023-08-06T01:17:48.997Z,93852.00
2023-08-06T01:18:49.032Z,93850.00
2023-08-06T01:19:49.070Z,93850.00
2023-08-06T01:20:49.133Z,93846.00
2023-08-06T01:21:49.197Z,93846.00
2023-08-06T01:22:49.232Z,93850.00
2023-08-06T01:23:49.317Z,93850.00
2023-08-06T01:24:49.324Z,93850.00
2023-08-06T01:25:49.379Z,93850.00
2023-08-06T01:26:49.441Z,93852.00
2023-08-06T01:27:49.474Z,93852.00
2023-08-06T01:28:49.529Z,93852.00
2023-08-06T01:29:49.605Z,93852.00
2023-08-06T01:30:49.667Z,93854.00
2023-08-06T01:31:49.804Z,93854.00
2023-08-06T01:32:49.887Z,93854.00
2023-08-06T01:33:50.045Z,93856.00
2023-08-06T01:34:49.842Z,93856.00
2023-08-06T01:35:49.878Z,93860.00
2023-08-06T01:36:49.972Z,93860.00
2023-08-06T01:37:49.980Z,93862.00
2023-08-06T01:38:50.034Z,93862.00
2023-08-06T01:39:50.057Z,93862.00
2023-08-06T01:40:50.123Z,93860.00
2023-08-06T01:41:50.578Z,93860.00
2023-08-06T01:42:50.186Z,93862.00
2023-08-06T01:43:50.258Z,93862.00
2023-08-06T01:44:50.294Z,93864.00
2023-08-06T01:45:50.362Z,93864.00
2023-08-06T01:46:50.381Z,93871.00
2023-08-06T01:47:50.526Z,93873.00
2023-08-06T01:48:50.450Z,93864.00
2023-08-06T01:49:50.483Z,93864.00
2023-08-06T01:50:50.539Z,93860.00
2023-08-06T01:51:50.843Z,93862.00
2023-08-06T01:52:50.652Z,93860.00
2023-08-06T01:53:50.706Z,93858.00
2023-08-06T01:54:50.727Z,93860.00
2023-08-06T01:55:50.797Z,93860.00
2023-08-06T01:56:50.829Z,93862.00
2023-08-06T01:57:50.876Z,93862.00
2023-08-06T01:58:51.048Z,93862.00
2023-08-06T01:59:50.963Z,93864.00
2023-08-06T02:00:51.008Z,93864.00
2023-08-06T02:01:51.249Z,93873.00
2023-08-06T02:02:51.147Z,93873.00
2023-08-06T02:03:51.147Z,93873.00
2023-08-06T02:04:51.253Z,93871.00
2023-08-06T02:05:52.535Z,93862.00
2023-08-06T02:06:51.465Z,93860.00
2023-08-06T02:07:51.502Z,93860.00
2023-08-06T02:08:51.553Z,93858.00
2023-08-06T02:09:51.637Z,93856.00
2023-08-06T02:10:51.645Z,93854.00
2023-08-06T02:11:51.897Z,93854.00
2023-08-06T02:12:51.728Z,93852.00
2023-08-06T02:13:51.763Z,93850.00
2023-08-06T02:14:51.818Z,93848.00
2023-08-06T02:15:51.901Z,93846.00
2023-08-06T02:16:51.935Z,93840.00
2023-08-06T02:17:51.983Z,93834.00
2023-08-06T02:18:51.974Z,93830.00
2023-08-06T02:19:52.045Z,93823.00
2023-08-06T02:20:52.188Z,93823.00
2023-08-06T02:21:52.372Z,93823.00
2023-08-06T02:22:52.200Z,93821.00
2023-08-06T02:23:52.263Z,93819.00
2023-08-06T02:24:52.275Z,93817.00
2023-08-06T02:25:52.304Z,93815.00
2023-08-06T02:26:52.621Z,93815.00
2023-08-06T02:27:52.314Z,93811.00
2023-08-06T02:28:52.303Z,93811.00
2023-08-06T02:29:52.290Z,93811.00
2023-08-06T02:30:52.307Z,93813.00
2023-08-06T02:31:52.653Z,93813.00
2023-08-06T02:32:52.313Z,93813.00
2023-08-06T02:33:52.255Z,93813.00
2023-08-06T02:34:52.252Z,93815.00
2023-08-06T02:35:52.282Z,93813.00
2023-08-06T02:36:52.310Z,93815.00
2023-08-06T02:37:52.375Z,93815.00
2023-08-06T02:38:52.388Z,93815.00
2023-08-06T02:39:52.440Z,93815.00
2023-08-06T02:40:52.478Z,93817.00
2023-08-06T02:41:52.979Z,93811.00
2023-08-06T02:42:52.570Z,93813.00
2023-08-06T02:43:52.619Z,93811.00
2023-08-06T02:44:52.644Z,93811.00
2023-08-06T02:45:52.738Z,93811.00
2023-08-06T02:46:52.758Z,93811.00
2023-08-06T02:47:52.857Z,93807.00
2023-08-06T02:48:52.841Z,93803.00
2023-08-06T02:49:52.856Z,93803.00
2023-08-06T02:50:52.931Z,93801.00
2023-08-06T02:51:53.306Z,93799.00
2023-08-06T02:52:53.030Z,93797.00
2023-08-06T02:53:53.039Z,93795.00
2023-08-06T02:54:53.115Z,93787.00
2023-08-06T02:55:53.157Z,93785.00
2023-08-06T02:56:53.197Z,93783.00
2023-08-06T02:57:53.256Z,93783.00
2023-08-06T02:58:53.266Z,93785.00
2023-08-06T02:59:53.320Z,93785.00
2023-08-06T03:00:53.394Z,93789.00
2023-08-06T03:01:53.625Z,93789.00
2023-08-06T03:02:53.520Z,93787.00
2023-08-06T03:03:53.511Z,93785.00
2023-08-06T03:04:53.590Z,93785.00
2023-08-06T03:05:53.616Z,93783.00
2023-08-06T03:06:53.686Z,93778.00
2023-08-06T03:07:53.701Z,93781.00
2023-08-06T03:08:53.755Z,93778.00
2023-08-06T03:09:53.795Z,93776.00
2023-08-06T03:10:53.855Z,93776.00
2023-08-06T03:11:54.094Z,93776.00
2023-08-06T03:12:53.950Z,93776.00
2023-08-06T03:13:54.025Z,93776.00
2023-08-06T03:14:54.055Z,93776.00
2023-08-06T03:15:54.096Z,93778.00
2023-08-06T03:16:54.156Z,93772.00
2023-08-06T03:17:54.217Z,93774.00
2023-08-06T03:18:54.272Z,93774.00
2023-08-06T03:19:54.298Z,93774.00
2023-08-06T03:20:54.357Z,93776.00
2023-08-06T03:21:54.462Z,93772.00
2023-08-06T03:22:54.493Z,93770.00
2023-08-06T03:23:54.468Z,93766.00
2023-08-06T03:24:54.529Z,93772.00
2023-08-06T03:25:54.563Z,93768.00
2023-08-06T03:26:54.607Z,93768.00
2023-08-06T03:27:54.659Z,93772.00
2023-08-06T03:28:54.709Z,93766.00
2023-08-06T03:29:54.752Z,93766.00
2023-08-06T03:30:54.830Z,93766.00
2023-08-06T03:31:54.873Z,93768.00
2023-08-06T03:32:54.918Z,93770.00
2023-08-06T03:33:54.955Z,93770.00
2023-08-06T03:34:54.977Z,93772.00
2023-08-06T03:35:55.047Z,93774.00
2023-08-06T03:36:55.067Z,93774.00
2023-08-06T03:37:55.136Z,93774.00
2023-08-06T03:38:55.207Z,93774.00
2023-08-06T03:39:55.226Z,93774.00
2023-08-06T03:40:55.292Z,93779.00
2023-08-06T03:41:55.358Z,93778.00
2023-08-06T03:42:55.384Z,93778.00
2023-08-06T03:43:55.465Z,93778.00
2023-08-06T03:44:55.472Z,93779.00
2023-08-06T03:45:55.581Z,93781.00
2023-08-06T03:46:55.720Z,93783.00
2023-08-06T03:47:55.678Z,93783.00
2023-08-06T03:48:55.687Z,93785.00
2023-08-06T03:49:55.761Z,93787.00
2023-08-06T03:50:55.799Z,93789.00
2023-08-06T03:51:55.846Z,93789.00
2023-08-06T03:52:55.911Z,93793.00
2023-08-06T03:53:55.952Z,93795.00
2023-08-06T03:54:56.019Z,93795.00
2023-08-06T03:55:56.057Z,93793.00
2023-08-06T03:56:56.115Z,93791.00
2023-08-06T03:57:56.164Z,93789.00
2023-08-06T03:58:56.259Z,93791.00
2023-08-06T03:59:56.275Z,93791.00
2023-08-06T04:00:56.330Z,93787.00
2023-08-06T04:01:56.400Z,93787.00
2023-08-06T04:02:56.483Z,93789.00
2023-08-06T04:03:56.529Z,93787.00
2023-08-06T04:04:56.543Z,93783.00
2023-08-06T04:05:56.580Z,93783.00
2023-08-06T04:06:56.655Z,93781.00
2023-08-06T04:07:56.719Z,93781.00
2023-08-06T04:08:56.741Z,93776.00
2023-08-06T04:09:56.792Z,93778.00
2023-08-06T04:10:56.868Z,93776.00
2023-08-06T04:11:56.898Z,93774.00
2023-08-06T04:12:56.980Z,93774.00
2023-08-06T04:13:57.037Z,93772.00
2023-08-06T04:14:57.099Z,93772.00
2023-08-06T04:15:57.135Z,93770.00
2023-08-06T04:16:57.194Z,93772.00
2023-08-06T04:17:57.258Z,93770.00
2023-08-06T04:18:57.322Z,93770.00
2023-08-06T04:19:57.350Z,93768.00
2023-08-06T04:20:57.389Z,93766.00
2023-08-06T04:21:57.483Z,93764.00
2023-08-06T04:22:57.512Z,93764.00
2023-08-06T04:23:57.596Z,93766.00
2023-08-06T04:24:57.640Z,93770.00
2023-08-06T04:25:57.702Z,93766.00
2023-08-06T04:26:57.755Z,93766.00
2023-08-06T04:27:57.827Z,93762.00
2023-08-06T04:28:57.882Z,93762.00
2023-08-06T04:29:57.936Z,93760.00
2023-08-06T04:30:58.010Z,93762.00
2023-08-06T04:31:58.036Z,93758.00
2023-08-06T04:32:58.127Z,93760.00
2023-08-06T04:33:58.176Z,93762.00
2023-08-06T04:34:58.190Z,93758.00
2023-08-06T04:35:58.261Z,93764.00
2023-08-06T04:36:58.330Z,93762.00
2023-08-06T04:37:58.398Z,93764.00
2023-08-06T04:38:58.445Z,93760.00
2023-08-06T04:39:58.543Z,93760.00
2023-08-06T04:40:58.552Z,93756.00
2023-08-06T04:41:59.197Z,93754.00
2023-08-06T04:42:58.638Z,93758.00
2023-08-06T04:43:58.688Z,93762.00
2023-08-06T04:44:58.743Z,93764.00
2023-08-06T04:45:58.880Z,93764.00
2023-08-06T04:46:58.878Z,93764.00
2023-08-06T04:47:58.952Z,93762.00
2023-08-06T04:48:58.965Z,93764.00
2023-08-06T04:49:59.055Z,93764.00
2023-08-06T04:50:59.096Z,93762.00
2023-08-06T04:51:59.161Z,93760.00
2023-08-06T04:52:59.218Z,93762.00
2023-08-06T04:53:59.266Z,93760.00
2023-08-06T04:54:59.310Z,93762.00
2023-08-06T04:55:59.356Z,93764.00
2023-08-06T04:56:59.400Z,93766.00
2023-08-06T04:57:59.435Z,93768.00
2023-08-06T04:58:59.486Z,93768.00
2023-08-06T04:59:59.558Z,93768.00
2023-08-06T05:00:59.617Z,93766.00
2023-08-06T05:01:59.659Z,93766.00
2023-08-06T05:02:59.723Z,93764.00
2023-08-06T05:03:59.790Z,93766.00
2023-08-06T05:04:59.867Z,93766.00
2023-08-06T05:05:59.838Z,93766.00
2023-08-06T05:06:59.880Z,93770.00
2023-08-06T05:07:59.942Z,93772.00
2023-08-06T05:09:00.019Z,93774.00
2023-08-06T05:10:00.060Z,93770.00
2023-08-06T05:11:00.069Z,93770.00
2023-08-06T05:12:00.155Z,93772.00
2023-08-06T05:13:00.210Z,93772.00
2023-08-06T05:14:00.226Z,93768.00
2023-08-06T05:15:00.305Z,93770.00
2023-08-06T05:16:00.331Z,93772.00
2023-08-06T05:17:00.396Z,93770.00
2023-08-06T05:18:00.463Z,93774.00
2023-08-06T05:19:00.430Z,93774.00
2023-08-06T05:20:00.497Z,93772.00
2023-08-06T05:21:00.544Z,93772.00
2023-08-06T05:22:00.574Z,93776.00
2023-08-06T05:23:00.633Z,93779.00
2023-08-06T05:24:00.684Z,93783.00
2023-08-06T05:25:00.723Z,93781.00
2023-08-06T05:26:00.790Z,93779.00
2023-08-06T05:27:01.765Z,93779.00
2023-08-06T05:28:00.855Z,93779.00
2023-08-06T05:29:00.868Z,93781.00
2023-08-06T05:30:00.920Z,93781.00
2023-08-06T05:31:01.910Z,93778.00
2023-08-06T05:32:00.997Z,93776.00
2023-08-06T05:33:01.016Z,93776.00
2023-08-06T05:34:01.021Z,93778.00
2023-08-06T05:35:01.062Z,93776.00
2023-08-06T05:36:01.092Z,93772.00
2023-08-06T05:37:01.118Z,93774.00
2023-08-06T05:38:01.124Z,93772.00
2023-08-06T05:39:01.149Z,93770.00
2023-08-06T05:40:01.213Z,93770.00
2023-08-06T05:41:01.178Z,93768.00
2023-08-06T05:42:01.223Z,93768.00
2023-08-06T05:43:01.234Z,93766.00
2023-08-06T05:44:04.253Z,93766.00
2023-08-06T05:45:01.303Z,93768.00
2023-08-06T05:46:01.297Z,93762.00
2023-08-06T05:47:01.270Z,93764.00
2023-08-06T05:48:01.230Z,93762.00
2023-08-06T05:49:01.221Z,93764.00
2023-08-06T05:50:01.248Z,93764.00
2023-08-06T05:51:01.217Z,93760.00
2023-08-06T05:52:01.197Z,93760.00
2023-08-06T05:53:02.246Z,93760.00
2023-08-06T05:54:01.265Z,93764.00
2023-08-06T05:55:01.203Z,93766.00
2023-08-06T05:56:01.209Z,93766.00
2023-08-06T05:57:01.185Z,93764.00
2023-08-06T05:58:01.174Z,93762.00
2023-08-06T05:59:01.179Z,93758.00
2023-08-06T06:00:01.177Z,93756.00
2023-08-06T06:01:01.171Z,93756.00
2023-08-06T06:02:01.121Z,93754.00
2023-08-06T06:03:01.217Z,93756.00
2023-08-06T06:04:01.194Z,93756.00
2023-08-06T06:05:01.149Z,93754.00
2023-08-06T06:06:01.157Z,93756.00
2023-08-06T06:07:01.109Z,93754.00
2023-08-06T06:08:01.118Z,93754.00
2023-08-06T06:09:01.136Z,93752.00
2023-08-06T06:10:01.114Z,93752.00
2023-08-06T06:11:01.096Z,93754.00
2023-08-06T06:12:01.079Z,93752.00
2023-08-06T06:13:01.078Z,93752.00
2023-08-06T06:14:01.106Z,93750.00
2023-08-06T06:15:01.086Z,93746.00
2023-08-06T06:16:01.111Z,93750.00
2023-08-06T06:17:01.033Z,93750.00
2023-08-06T06:18:01.074Z,93750.00
2023-08-06T06:19:01.048Z,93750.00
2023-08-06T06:20:01.021Z,93752.00
2023-08-06T06:21:01.012Z,93754.00
2023-08-06T06:22:01.021Z,93752.00
2023-08-06T06:23:01.003Z,93752.00
2023-08-06T06:24:01.001Z,93754.00
2023-08-06T06:25:00.988Z,93754.00
2023-08-06T06:26:00.991Z,93756.00
2023-08-06T06:27:00.978Z,93752.00
2023-08-06T06:28:00.957Z,93752.00
2023-08-06T06:29:00.962Z,93752.00
2023-08-06T06:30:00.960Z,93754.00
2023-08-06T06:31:00.997Z,93754.00
2023-08-06T06:32:00.936Z,93754.00
2023-08-06T06:33:01.025Z,93754.00
2023-08-06T06:34:00.937Z,93750.00
2023-08-06T06:35:00.946Z,93750.00
2023-08-06T06:36:00.924Z,93748.00
2023-08-06T06:37:00.926Z,93748.00
2023-08-06T06:38:00.909Z,93746.00
2023-08-06T06:39:00.958Z,93744.00
2023-08-06T06:40:00.880Z,93744.00
2023-08-06T06:41:00.920Z,93742.00
2023-08-06T06:42:00.894Z,93748.00
2023-08-06T06:43:00.879Z,93748.00
2023-08-06T06:44:00.887Z,93746.00
2023-08-06T06:45:00.910Z,93748.00
2023-08-06T06:46:01.043Z,93746.00
2023-08-06T06:47:01.025Z,93744.00
2023-08-06T06:48:01.111Z,93746.00
2023-08-06T06:49:01.121Z,93744.00
2023-08-06T06:50:01.168Z,93746.00
2023-08-06T06:51:01.212Z,93740.00
2023-08-06T06:52:01.269Z,93744.00
2023-08-06T06:53:01.313Z,93740.00
2023-08-06T06:54:01.353Z,93742.00
2023-08-06T06:55:01.369Z,93738.00
2023-08-06T06:56:01.420Z,93740.00
2023-08-06T06:57:01.445Z,93736.00
2023-08-06T06:58:01.491Z,93734.00
2023-08-06T06:59:01.592Z,93740.00
2023-08-06T07:00:01.773Z,93738.00
2023-08-06T07:01:01.587Z,93736.00
2023-08-06T07:02:01.868Z,93734.00
2023-08-06T07:03:01.669Z,93732.00
2023-08-06T07:04:01.685Z,93731.00
2023-08-06T07:05:01.660Z,93731.00
2023-08-06T07:06:01.688Z,93731.00
2023-08-06T07:07:01.676Z,93732.00
2023-08-06T07:08:01.689Z,93731.00
2023-08-06T07:09:01.724Z,93729.00
2023-08-06T07:10:01.725Z,93731.00
2023-08-06T07:11:01.722Z,93727.00
2023-08-06T07:12:01.764Z,93729.00
2023-08-06T07:13:01.805Z,93725.00
2023-08-06T07:14:01.960Z,93725.00
2023-08-06T07:15:01.991Z,93723.00
2023-08-06T07:16:01.956Z,93719.00
2023-08-06T07:17:02.059Z,93715.00
2023-08-06T07:18:02.032Z,93717.00
2023-08-06T07:19:01.949Z,93717.00
2023-08-06T07:20:01.971Z,93713.00
2023-08-06T07:21:02.006Z,93709.00
2023-08-06T07:22:02.287Z,93705.00
2023-08-06T07:23:02.037Z,93703.00
2023-08-06T07:24:02.051Z,93701.00
2023-08-06T07:25:02.096Z,93701.00
2023-08-06T07:26:02.120Z,93703.00
2023-08-06T07:27:02.158Z,93703.00
2023-08-06T07:28:02.178Z,93703.00
2023-08-06T07:29:02.216Z,93701.00
2023-08-06T07:30:02.264Z,93703.00
2023-08-06T07:31:02.340Z,93699.00
2023-08-06T07:32:02.310Z,93697.00
2023-08-06T07:33:02.396Z,93697.00
2023-08-06T07:34:02.395Z,93697.00
2023-08-06T07:35:02.438Z,93693.00
2023-08-06T07:36:02.489Z,93695.00
2023-08-06T07:37:02.571Z,93693.00
2023-08-06T07:38:02.568Z,93689.00
2023-08-06T07:39:02.753Z,93687.00
2023-08-06T07:40:02.658Z,93687.00
2023-08-06T07:41:02.695Z,93687.00
2023-08-06T07:42:02.769Z,93689.00
2023-08-06T07:43:02.830Z,93687.00
2023-08-06T07:44:02.839Z,93689.00
2023-08-06T07:45:02.908Z,93689.00
2023-08-06T07:46:02.961Z,93689.00
2023-08-06T07:47:03.045Z,93691.00
2023-08-06T07:48:03.082Z,93691.00
2023-08-06T07:49:03.121Z,93691.00
2023-08-06T07:50:03.150Z,93693.00
2023-08-06T07:51:03.301Z,93691.00
2023-08-06T07:52:03.252Z,93693.00
2023-08-06T07:53:03.303Z,93693.00
2023-08-06T07:54:03.403Z,93689.00
2023-08-06T07:55:03.434Z,93689.00
2023-08-06T07:56:03.488Z,93691.00
2023-08-06T07:57:03.527Z,93691.00
2023-08-06T07:58:03.605Z,93695.00
2023-08-06T07:59:03.643Z,93691.00
2023-08-06T08:00:03.701Z,93691.00
2023-08-06T08:01:05.748Z,93695.00
2023-08-06T08:02:03.828Z,93691.00
2023-08-06T08:03:03.960Z,93693.00
2023-08-06T08:04:03.925Z,93697.00
2023-08-06T08:05:03.969Z,93699.00
2023-08-06T08:06:04.043Z,93701.00
2023-08-06T08:07:04.082Z,93705.00
2023-08-06T08:08:04.142Z,93707.00
2023-08-06T08:09:04.212Z,93705.00
2023-08-06T08:10:04.301Z,93707.00
2023-08-06T08:11:04.366Z,93705.00
2023-08-06T08:12:04.408Z,93707.00
2023-08-06T08:13:04.493Z,93709.00
2023-08-06T08:14:04.625Z,93711.00
2023-08-06T08:15:04.597Z,93713.00
2023-08-06T08:16:04.651Z,93713.00
2023-08-06T08:17:04.715Z,93715.00
2023-08-06T08:18:04.845Z,93717.00
2023-08-06T08:19:04.856Z,93717.00
2023-08-06T08:20:04.898Z,93721.00
2023-08-06T08:21:04.962Z,93721.00
2023-08-06T08:22:05.032Z,93723.00
2023-08-06T08:23:05.099Z,93723.00
2023-08-06T08:24:05.164Z,93727.00
2023-08-06T08:25:05.234Z,93727.00
2023-08-06T08:26:05.264Z,93731.00
2023-08-06T08:27:05.305Z,93736.00
2023-08-06T08:28:05.346Z,93738.00
2023-08-06T08:29:05.401Z,93740.00
2023-08-06T08:30:05.470Z,93742.00
2023-08-06T08:31:05.531Z,93744.00
2023-08-06T08:32:05.564Z,93746.00
2023-08-06T08:33:05.631Z,93746.00
2023-08-06T08:34:05.672Z,93744.00
2023-08-06T08:35:05.719Z,93744.00
2023-08-06T08:36:05.879Z,93744.00
2023-08-06T08:37:05.796Z,93746.00
2023-08-06T08:38:05.843Z,93746.00
2023-08-06T08:39:05.854Z,93748.00
2023-08-06T08:40:05.875Z,93750.00
2023-08-06T08:41:05.849Z,93752.00
2023-08-06T08:42:05.856Z,93752.00
2023-08-06T08:43:05.911Z,93752.00
2023-08-06T08:44:05.890Z,93750.00
2023-08-06T08:45:05.929Z,93752.00
2023-08-06T08:46:06.153Z,93746.00
2023-08-06T08:47:05.998Z,93750.00
2023-08-06T08:48:06.010Z,93748.00
2023-08-06T08:49:06.079Z,93750.00
2023-08-06T08:50:06.115Z,93748.00
2023-08-06T08:51:06.121Z,93752.00
2023-08-06T08:52:06.146Z,93752.00
2023-08-06T08:53:06.158Z,93756.00
2023-08-06T08:54:06.185Z,93758.00
2023-08-06T08:55:06.217Z,93758.00
2023-08-06T08:56:06.268Z,93756.00
2023-08-06T08:57:06.305Z,93758.00
2023-08-06T08:58:06.363Z,93758.00
2023-08-06T08:59:06.430Z,93758.00
2023-08-06T09:00:06.533Z,93760.00
2023-08-06T09:01:06.533Z,93762.00
2023-08-06T09:02:06.723Z,93766.00
2023-08-06T09:03:06.732Z,93764.00
2023-08-06T09:04:06.723Z,93764.00
2023-08-06T09:05:06.808Z,93772.00
2023-08-06T09:06:06.857Z,93772.00
2023-08-06T09:07:06.902Z,93770.00
2023-08-06T09:08:06.961Z,93770.00
2023-08-06T09:09:07.034Z,93770.00
2023-08-06T09:10:07.103Z,93772.00
2023-08-06T09:11:07.192Z,93776.00
2023-08-06T09:12:07.200Z,93778.00
2023-08-06T09:13:07.286Z,93778.00
2023-08-06T09:14:07.355Z,93776.00
2023-08-06T09:15:07.422Z,93778.00
2023-08-06T09:16:07.537Z,93776.00
2023-08-06T09:17:07.526Z,93778.00
2023-08-06T09:18:07.616Z,93778.00
2023-08-06T09:19:07.663Z,93778.00
2023-08-06T09:20:07.698Z,93779.00
2023-08-06T09:21:07.741Z,93781.00
2023-08-06T09:22:07.843Z,93781.00
2023-08-06T09:23:07.861Z,93781.00
2023-08-06T09:24:07.938Z,93781.00
2023-08-06T09:25:07.990Z,93778.00
2023-08-06T09:26:08.049Z,93781.00
2023-08-06T09:27:08.091Z,93783.00
2023-08-06T09:28:08.143Z,93791.00
2023-08-06T09:29:08.210Z,93791.00
2023-08-06T09:30:08.327Z,93793.00
2023-08-06T09:31:08.302Z,93787.00
2023-08-06T09:32:08.407Z,93787.00
2023-08-06T09:33:08.455Z,93785.00
2023-08-06T09:34:08.472Z,93787.00
2023-08-06T09:35:08.516Z,93789.00
2023-08-06T09:36:08.570Z,93789.00
2023-08-06T09:37:08.639Z,93789.00
2023-08-06T09:38:08.692Z,93793.00
2023-08-06T09:39:08.731Z,93793.00
2023-08-06T09:40:08.807Z,93795.00
2023-08-06T09:41:08.841Z,93789.00
2023-08-06T09:42:08.866Z,93789.00
2023-08-06T09:43:08.925Z,93789.00
2023-08-06T09:44:08.983Z,93791.00
2023-08-06T09:45:09.009Z,93783.00
2023-08-06T09:46:09.079Z,93779.00
2023-08-06T09:47:09.098Z,93779.00
2023-08-06T09:48:09.259Z,93774.00
2023-08-06T09:49:09.254Z,93770.00
2023-08-06T09:50:09.241Z,93766.00
2023-08-06T09:51:09.274Z,93760.00
2023-08-06T09:52:09.343Z,93754.00
2023-08-06T09:53:09.433Z,93756.00
2023-08-06T09:54:17.208Z,93754.00
2023-08-06T09:55:10.400Z,93752.00
2023-08-06T09:56:09.439Z,93750.00
2023-08-06T09:57:09.372Z,93744.00
2023-08-06T09:58:09.409Z,93736.00
2023-08-06T09:59:09.378Z,93740.00
2023-08-06T10:00:09.352Z,93744.00
2023-08-06T10:01:09.382Z,93744.00
2023-08-06T10:02:09.441Z,93740.00
2023-08-06T10:03:09.476Z,93738.00
2023-08-06T10:04:22.873Z,93738.00
2023-08-06T10:05:10.319Z,93744.00
2023-08-06T10:06:09.311Z,93746.00
2023-08-06T10:07:09.312Z,93742.00
2023-08-06T10:08:09.306Z,93736.00
2023-08-06T10:09:09.292Z,93740.00
2023-08-06T10:10:09.274Z,93736.00
2023-08-06T10:11:09.278Z,93731.00
2023-08-06T10:12:09.270Z,93731.00
2023-08-06T10:13:09.271Z,93732.00
2023-08-06T10:14:09.295Z,93725.00
2023-08-06T10:15:09.260Z,93727.00
2023-08-06T10:16:09.493Z,93727.00
2023-08-06T10:17:09.256Z,93725.00
2023-08-06T10:18:09.312Z,93729.00
2023-08-06T10:19:09.227Z,93732.00
2023-08-06T10:20:09.253Z,93731.00
2023-08-06T10:21:09.206Z,93734.00
2023-08-06T10:22:09.205Z,93732.00
2023-08-06T10:23:09.189Z,93727.00
2023-08-06T10:24:09.189Z,93727.00
2023-08-06T10:25:09.240Z,93729.00
2023-08-06T10:26:09.266Z,93729.00
2023-08-06T10:27:09.282Z,93731.00
2023-08-06T10:28:09.305Z,93729.00
2023-08-06T10:29:09.329Z,93727.00
2023-08-06T10:30:09.355Z,93723.00
2023-08-06T10:31:09.413Z,93725.00
2023-08-06T10:32:09.400Z,93725.00
2023-08-06T10:33:09.444Z,93719.00
2023-08-06T10:34:09.459Z,93721.00
2023-08-06T10:35:09.482Z,93717.00
2023-08-06T10:36:09.498Z,93717.00
2023-08-06T10:37:09.518Z,93719.00
2023-08-06T10:38:09.564Z,93717.00
2023-08-06T10:39:16.436Z,93717.00
2023-08-06T10:40:10.575Z,93719.00
2023-08-06T10:41:09.546Z,93715.00
2023-08-06T10:42:09.561Z,93719.00
2023-08-06T10:43:09.556Z,93719.00
2023-08-06T10:44:09.605Z,93719.00
2023-08-06T10:45:09.569Z,93719.00
2023-08-06T10:46:09.535Z,93719.00
2023-08-06T10:47:09.524Z,93717.00
2023-08-06T10:48:09.575Z,93719.00
2023-08-06T10:49:09.543Z,93719.00
2023-08-06T10:50:09.523Z,93721.00
2023-08-06T10:51:09.500Z,93721.00
2023-08-06T10:52:09.470Z,93717.00
2023-08-06T10:53:09.520Z,93715.00
2023-08-06T10:54:09.480Z,93721.00
2023-08-06T10:55:09.471Z,93721.00
2023-08-06T10:56:09.464Z,93719.00
2023-08-06T10:57:09.454Z,93721.00
2023-08-06T10:58:09.453Z,93721.00
2023-08-06T10:59:09.452Z,93721.00
2023-08-06T11:00:20.476Z,93723.00
2023-08-06T11:01:10.495Z,93725.00
2023-08-06T11:02:09.474Z,93729.00
2023-08-06T11:03:09.497Z,93723.00
2023-08-06T11:04:09.384Z,93723.00
2023-08-06T11:05:09.398Z,93721.00
2023-08-06T11:06:09.414Z,93723.00
2023-08-06T11:07:09.460Z,93727.00
2023-08-06T11:08:09.398Z,93727.00
2023-08-06T11:09:09.373Z,93731.00
2023-08-06T11:10:09.366Z,93729.00
2023-08-06T11:11:09.393Z,93732.00
2023-08-06T11:12:09.382Z,93736.00
2023-08-06T11:13:09.344Z,93742.00
2023-08-06T11:14:09.328Z,93748.00
2023-08-06T11:15:09.345Z,93746.00
2023-08-06T11:16:09.337Z,93752.00
2023-08-06T11:17:09.332Z,93750.00
2023-08-06T11:18:09.325Z,93748.00
2023-08-06T11:19:09.335Z,93750.00
2023-08-06T11:20:09.311Z,93750.00
2023-08-06T11:21:09.286Z,93752.00
2023-08-06T11:22:09.325Z,93754.00
2023-08-06T11:23:09.301Z,93752.00
2023-08-06T11:24:09.277Z,93750.00
2023-08-06T11:25:09.259Z,93750.00
2023-08-06T11:26:09.290Z,93752.00
2023-08-06T11:27:09.286Z,93752.00
2023-08-06T11:28:09.325Z,93754.00
2023-08-06T11:29:09.355Z,93756.00
2023-08-06T11:30:09.369Z,93756.00
2023-08-06T11:31:09.442Z,93762.00
2023-08-06T11:32:09.509Z,93762.00
2023-08-06T11:33:09.413Z,93766.00
2023-08-06T11:34:09.448Z,93764.00
2023-08-06T11:35:09.471Z,93770.00
2023-08-06T11:36:09.488Z,93770.00
2023-08-06T11:37:09.555Z,93764.00
2023-08-06T11:38:09.635Z,93768.00
2023-08-06T11:39:09.593Z,93774.00
2023-08-06T11:40:09.620Z,93783.00
2023-08-06T11:41:09.621Z,93787.00
2023-08-06T11:42:09.693Z,93785.00
2023-08-06T11:43:09.655Z,93787.00
2023-08-06T11:44:09.676Z,93789.00
2023-08-06T11:45:09.707Z,93791.00